NOTICIAS

¡ATENCIÓN! Sistemas actualizados a VAM 2.6, esperamos que os guste. Si encuentras algún error, por favor comunícalo en el Foro VAG.
 METAR AND TAF INFORMATION
METAR FOR GEML
ADDS - METARS form results

(0659 UTC 23 June 2017)
Data provider http://aviationweather.gov/adds/metars/
 
METAR text: GEML 230630Z 27006KT 230V300 9999 FEW007 24/21 Q1021
Conditions at: GEML (MELILLA , ES) observed 0630 UTC 23 June 2017
Temperature: 24.0°C (75°F)
Dewpoint: 21.0°C (70°F) [RH = 83%]
Pressure (altimeter): 30.15 inches Hg (1021.0 mb)
Winds: from the W (270 degrees) at 7 MPH (6 knots; 3.1 m/s)
Visibility: 6 or more miles (10+ km)
Ceiling: at least 12,000 feet AGL
Clouds: few clouds at 700 feet AGL
Weather: no significant weather observed at this time

METAR text: GEML 230600Z 26006KT 220V290 9999 FEW007 23/20 Q1021
Conditions at: GEML (MELILLA , ES) observed 0600 UTC 23 June 2017
Temperature: 23.0°C (73°F)
Dewpoint: 20.0°C (68°F) [RH = 83%]
Pressure (altimeter): 30.15 inches Hg (1021.0 mb)
Winds: from the W (260 degrees) at 7 MPH (6 knots; 3.1 m/s)
Visibility: 6 or more miles (10+ km)
Ceiling: at least 12,000 feet AGL
Clouds: few clouds at 700 feet AGL
Weather: no significant weather observed at this time

Forecast for: GEML (MELILLA , ES)
Text: TAF GEML 230200Z 2303/2403 07005KT 9999 FEW012 TX27/2314Z TN21/2305Z
Forecast period: 0300 UTC 23 June 2017 to 0300 UTC 24 June 2017
Forecast type: FROM: standard forecast or significant change
Winds: from the ENE (70 degrees) at 6 MPH (5 knots; 2.6 m/s)
Visibility: 6 or more miles (10+ km)
Clouds: few clouds at 1200 feet AGL
Weather: no significant weather forecast for this period
Text: PROB30
Forecast period: 0300 to 0900 UTC 23 June 2017
Forecast type: TEMPORARY: The following changes expected for less than half the time period
Ceiling: 1200 feet AGL
Clouds: broken clouds at 1200 feet AGL
Weather: no significant weather forecast for this period

 AIRPORT MAP

 RUNWAY INFORMATION
Runway 15 Runway length 4685 ft Runway width 148 ft
Runway elevation 156 ft Runway displaced threshold 755 ft Runway heading 146
Runway 33 Runway length 4685 ft Runway width 148 ft
Runway elevation 133 ft Runway displaced threshold 0 ft Runway heading 326

 AIRPORT FREQUENCIES
Type GND Name GND Frequency 121.7 MHZ
Type TWR Name TWR Frequency 118.5 MHZ

 AIRPORT NEAR NAVIGATION AIDS
Type VOR-DME Name Melilla Frequency 114250 KHZ
Type DME Name Melilla Frequency 117400 KHZ







Air Nostrum Virtual © 2017

a VAG member

Policy Privacy | Rules | Powered by VAM [V2.6.2] | Customized by Jz © 2017 for Air Nostrum Virtual